Home > Products > Valid Products > TAF

000
FTUS43 KGRB 011700
TAFGRB
TAF
KGRB 011738Z 0118/0218 12010KT P6SM BKN024
     FM012000 14008KT P6SM BKN025 BKN200
      TEMPO 0120/0122 SCT025 BKN200
     FM020100 15006KT 5SM BR SCT009 OVC015
      TEMPO 0203/0205 2SM -RA BR BKN009
     FM020500 13003KT 2SM -RA BR OVC008
      TEMPO 0209/0212 1/2SM FG VV003
     FM021200 15003KT 5SM BR SCT008 BKN014 PROB30 0214/0218 4SM
      -TSRA BR BKN014CB OVC022=



000
FTUS43 KGRB 011700
TAFGRB
TAF
KGRB 011738Z 0118/0218 12010KT P6SM BKN024
     FM012000 14008KT P6SM BKN025 BKN200
      TEMPO 0120/0122 SCT025 BKN200
     FM020100 15006KT 5SM BR SCT009 OVC015
      TEMPO 0203/0205 2SM -RA BR BKN009
     FM020500 13003KT 2SM -RA BR OVC008
      TEMPO 0209/0212 1/2SM FG VV003
     FM021200 15003KT 5SM BR SCT008 BKN014 PROB30 0214/0218 4SM
      -TSRA BR BKN014CB OVC022=



000
FTUS43 KGRB 011500 AAB
TAFGRB
TAF AMD
KGRB 011514Z 0115/0212 13007KT P6SM OVC027
     FM012000 14008KT P6SM BKN025 BKN080
     FM020100 15006KT 5SM BR SCT009 OVC015
      TEMPO 0201/0205 2SM -RA BR BKN009
     FM020500 13004KT 2SM -RA BR OVC008=



000
FTUS43 KGRB 011500 AAB
TAFGRB
TAF AMD
KGRB 011514Z 0115/0212 13007KT P6SM OVC027
     FM012000 14008KT P6SM BKN025 BKN080
     FM020100 15006KT 5SM BR SCT009 OVC015
      TEMPO 0201/0205 2SM -RA BR BKN009
     FM020500 13004KT 2SM -RA BR OVC008=



000
FTUS43 KGRB 011300 AAA
TAFGRB
TAF AMD
KGRB 011324Z 0113/0212 09003KT P6SM OVC015
      TEMPO 0114/0116 OVC020
     FM011600 13007KT P6SM BKN020
     FM012000 14008KT P6SM BKN025 BKN080
     FM020100 15006KT 5SM BR SCT009 OVC015
      TEMPO 0201/0205 2SM -RA BR BKN009
     FM020500 13004KT 2SM -RA BR OVC008=



000
FTUS43 KGRB 011300 AAA
TAFGRB
TAF AMD
KGRB 011324Z 0113/0212 09003KT P6SM OVC015
      TEMPO 0114/0116 OVC020
     FM011600 13007KT P6SM BKN020
     FM012000 14008KT P6SM BKN025 BKN080
     FM020100 15006KT 5SM BR SCT009 OVC015
      TEMPO 0201/0205 2SM -RA BR BKN009
     FM020500 13004KT 2SM -RA BR OVC008=



000
FTUS43 KGRB 011100
TAFGRB
TAF
KGRB 011136Z 0112/0212 09003KT P6SM OVC015
      TEMPO 0113/0116 4SM -DZ BR BKN005 OVC070
     FM011600 13007KT P6SM BKN018
     FM012000 14008KT P6SM BKN025 BKN080
     FM020100 15006KT 5SM BR SCT009 OVC015
      TEMPO 0201/0205 2SM -RA BR BKN009
     FM020500 13004KT 2SM -RA BR OVC008=



000
FTUS43 KGRB 011100
TAFGRB
TAF
KGRB 011136Z 0112/0212 09003KT P6SM OVC015
      TEMPO 0113/0116 4SM -DZ BR BKN005 OVC070
     FM011600 13007KT P6SM BKN018
     FM012000 14008KT P6SM BKN025 BKN080
     FM020100 15006KT 5SM BR SCT009 OVC015
      TEMPO 0201/0205 2SM -RA BR BKN009
     FM020500 13004KT 2SM -RA BR OVC008=



000
FTUS43 KGRB 010500
TAFGRB
TAF
KGRB 010539Z 0106/0206 09003KT P6SM OVC010
      TEMPO 0106/0110 5SM -DZ BR BKN008
     FM011000 09003KT 5SM -DZ BR OVC007
     FM011500 13007KT P6SM BKN020
     FM012000 14008KT P6SM SCT030 BKN250
     FM020100 15006KT 5SM BR SCT009 OVC015
      TEMPO 0202/0206 2SM -RA BR BKN009=



000
FTUS43 KGRB 010500
TAFGRB
TAF
KGRB 010539Z 0106/0206 09003KT P6SM OVC010
      TEMPO 0106/0110 5SM -DZ BR BKN008
     FM011000 09003KT 5SM -DZ BR OVC007
     FM011500 13007KT P6SM BKN020
     FM012000 14008KT P6SM SCT030 BKN250
     FM020100 15006KT 5SM BR SCT009 OVC015
      TEMPO 0202/0206 2SM -RA BR BKN009=



000
FTUS43 KGRB 010200 AAA
TAFGRB
TAF AMD
KGRB 010206Z 0102/0124 04005KT P6SM OVC011
      TEMPO 0109/0113 3SM BR BKN008
     FM011500 14007KT P6SM BKN020
     FM012000 15008KT P6SM SCT030 BKN250=



000
FTUS43 KGRB 010200 AAA
TAFGRB
TAF AMD
KGRB 010206Z 0102/0124 04005KT P6SM OVC011
      TEMPO 0109/0113 3SM BR BKN008
     FM011500 14007KT P6SM BKN020
     FM012000 15008KT P6SM SCT030 BKN250=



000
FTUS43 KGRB 302300
TAFGRB
TAF
KGRB 302325Z 0100/0124 04005KT P6SM OVC015
     FM010600 VRB03KT 5SM BR SCT008 OVC015
      TEMPO 0109/0113 2SM BR BKN008
     FM011500 14007KT P6SM BKN020
     FM012000 15008KT P6SM SCT030 BKN250=



000
FTUS43 KGRB 302300
TAFGRB
TAF
KGRB 302325Z 0100/0124 04005KT P6SM OVC015
     FM010600 VRB03KT 5SM BR SCT008 OVC015
      TEMPO 0109/0113 2SM BR BKN008
     FM011500 14007KT P6SM BKN020
     FM012000 15008KT P6SM SCT030 BKN250=



000
FTUS43 KGRB 302200 AAA
TAFGRB
TAF AMD
KGRB 302201Z 3022/0118 04005KT P6SM OVC018
      TEMPO 0101/0103 SCT020 SCT250
     FM010500 VRB03KT 5SM BR SCT008 OVC015
      TEMPO 0109/0113 2SM BR BKN008
     FM011500 15006KT P6SM BKN020 OVC040=



000
FTUS43 KGRB 302200 AAA
TAFGRB
TAF AMD
KGRB 302201Z 3022/0118 04005KT P6SM OVC018
      TEMPO 0101/0103 SCT020 SCT250
     FM010500 VRB03KT 5SM BR SCT008 OVC015
      TEMPO 0109/0113 2SM BR BKN008
     FM011500 15006KT P6SM BKN020 OVC040=



000
FTUS43 KGRB 301700
TAFGRB
TAF
KGRB 301727Z 3018/0118 04007KT P6SM OVC015
     FM302300 07005KT P6SM BKN020
      TEMPO 3023/0103 SCT020 SCT250
     FM010500 VRB03KT 5SM BR SCT008 OVC015
      TEMPO 0109/0113 2SM BR BKN008
     FM011500 15006KT P6SM BKN020 OVC040=



000
FTUS43 KGRB 301700
TAFGRB
TAF
KGRB 301727Z 3018/0118 04007KT P6SM OVC015
     FM302300 07005KT P6SM BKN020
      TEMPO 3023/0103 SCT020 SCT250
     FM010500 VRB03KT 5SM BR SCT008 OVC015
      TEMPO 0109/0113 2SM BR BKN008
     FM011500 15006KT P6SM BKN020 OVC040=



000
FTUS43 KGRB 301100
TAFGRB
TAF
KGRB 301120Z 3012/0112 36009G14KT P6SM OVC015
     FM301800 02008KT P6SM SCT015 BKN020
     FM302300 07005KT P6SM SCT015 SCT025
     FM010400 VRB03KT 5SM BR BKN015=



000
FTUS43 KGRB 300500
TAFGRB
TAF
KGRB 300534Z 3006/0106 01010G17KT P6SM OVC018
     FM301500 02008KT P6SM BKN022
     FM302300 07005KT P6SM BKN030=



000
FTUS43 KGRB 300500
TAFGRB
TAF
KGRB 300534Z 3006/0106 01010G17KT P6SM OVC018
     FM301500 02008KT P6SM BKN022
     FM302300 07005KT P6SM BKN030=



000
FTUS43 KGRB 300200 AAB
TAFGRB
TAF AMD
KGRB 300206Z 3002/3024 02012KT P6SM OVC022
     FM300600 01010G17KT P6SM OVC018
     FM301500 02008KT P6SM BKN025
     FM302000 04007KT P6SM SCT030=



000
FTUS43 KGRB 300100 AAA
TAFGRB
TAF AMD
KGRB 300107Z 3001/3024 36010KT P6SM SCT014 OVC022
     FM300400 01010G17KT P6SM OVC014
     FM301500 02008KT P6SM BKN025
     FM302000 04007KT P6SM SCT030=



000
FTUS43 KGRB 292300
TAFGRB
TAF
KGRB 292325Z 3000/3024 02010KT P6SM SCT014 OVC022
      TEMPO 3000/3004 -SHRA BKN014
     FM300400 01010G17KT P6SM OVC014
     FM301500 02008KT P6SM BKN025
     FM302000 04007KT P6SM SCT030=



000
FTUS43 KGRB 292100 AAA
TAFGRB
TAF AMD
KGRB 292122Z 2921/3018 02011G19KT P6SM OVC012
     FM300000 02010G18KT P6SM BKN020
     FM300700 36010KT P6SM BKN015
     FM301400 03008KT P6SM BKN025=



000
FTUS43 KGRB 291700
TAFGRB
TAF
KGRB 291726Z 2918/3018 02011G19KT P6SM VCSH BKN006 OVC012
      TEMPO 2918/2920 4SM -SHRA BR SCT006 OVC012
     FM292000 02011G19KT P6SM SCT012 OVC025
      TEMPO 2920/2924 BKN012
     FM300000 02010G18KT P6SM BKN020
     FM300700 36010KT P6SM BKN015
     FM301400 03008KT P6SM BKN025=



000
FTUS43 KGRB 291700
TAFGRB
TAF
KGRB 291726Z 2918/3018 02011G19KT P6SM VCSH BKN006 OVC012
      TEMPO 2918/2920 4SM -SHRA BR SCT006 OVC012
     FM292000 02011G19KT P6SM SCT012 OVC025
      TEMPO 2920/2924 BKN012
     FM300000 02010G18KT P6SM BKN020
     FM300700 36010KT P6SM BKN015
     FM301400 03008KT P6SM BKN025=



000
FTUS43 KGRB 291400 AAA
TAFGRB
TAF AMD
KGRB 291442Z 2915/3012 01010G16KT P6SM OVC011
     FM291700 01010G18KT P6SM BKN012 OVC030
      TEMPO 2917/2921 5SM -SHRA BR
     FM300200 04018G27KT P6SM SCT007 OVC012
     FM300900 35009G17KT P6SM BKN018 OVC025=



000
FTUS43 KGRB 291400 AAA
TAFGRB
TAF AMD
KGRB 291442Z 2915/3012 01010G16KT P6SM OVC011
     FM291700 01010G18KT P6SM BKN012 OVC030
      TEMPO 2917/2921 5SM -SHRA BR
     FM300200 04018G27KT P6SM SCT007 OVC012
     FM300900 35009G17KT P6SM BKN018 OVC025=



000
FTUS43 KGRB 291100
TAFGRB
TAF
KGRB 291139Z 2912/3012 VRB03KT 5SM BR SCT006 BKN070
     FM291430 04014G22KT P6SM BKN010 OVC060
     FM291700 01010G18KT P6SM BKN012 OVC030
      TEMPO 2917/2921 5SM -SHRA BR
     FM300200 04018G27KT P6SM SCT007 OVC012
     FM300900 35009G17KT P6SM BKN018 OVC025=



000
FTUS43 KGRB 290500
TAFGRB
TAF
KGRB 290532Z 2906/3006 19003KT P6SM SCT250
     FM290800 VRB03KT 5SM BR SCT250
     FM291500 33008G15KT 6SM BR SCT015 BKN060
     FM291700 35010G18KT P6SM VCSH SCT012 OVC025
      TEMPO 2917/2920 5SM -SHRA BR BKN012
     FM292000 02012G20KT P6SM OVC020=



000
FTUS43 KGRB 290500
TAFGRB
TAF
KGRB 290532Z 2906/3006 19003KT P6SM SCT250
     FM290800 VRB03KT 5SM BR SCT250
     FM291500 33008G15KT 6SM BR SCT015 BKN060
     FM291700 35010G18KT P6SM VCSH SCT012 OVC025
      TEMPO 2917/2920 5SM -SHRA BR BKN012
     FM292000 02012G20KT P6SM OVC020=



000
FTUS43 KGRB 282300
TAFGRB
TAF
KGRB 282328Z 2900/2924 19004KT P6SM SCT250
     FM290700 VRB03KT 4SM BR SCT250
     FM291300 33007KT 5SM BR SCT025 BKN060
     FM291600 35009G16KT P6SM VCSH SCT012 OVC025
      TEMPO 2918/2922 5SM -SHRA BR BKN012
     FM292200 02012G20KT P6SM -SHRA SCT012 OVC020=



000
FTUS43 KGRB 282300
TAFGRB
TAF
KGRB 282328Z 2900/2924 19004KT P6SM SCT250
     FM290700 VRB03KT 4SM BR SCT250
     FM291300 33007KT 5SM BR SCT025 BKN060
     FM291600 35009G16KT P6SM VCSH SCT012 OVC025
      TEMPO 2918/2922 5SM -SHRA BR BKN012
     FM292200 02012G20KT P6SM -SHRA SCT012 OVC020=



    US Dept of Commerce
    National Oceanic and Atmospheric Administration
    National Weather Service
    1325 East West Highway
    Silver Spring, MD 20910
    Page Author: NWS Internet Services Team
Disclaimer
Information Quality
Credits
Glossary
Privacy Policy
Freedom of Information Act (FOIA)
About Us
Career Opportunities